createdAt,value
2018-03-26T00:00:44.660Z,12.85
2018-03-26T00:03:12.191Z,13.27
2018-03-26T00:05:39.736Z,15.75
2018-03-26T00:08:07.266Z,13.23
2018-03-26T00:10:34.783Z,12.52
2018-03-26T00:13:02.313Z,13.15
2018-03-26T00:15:29.833Z,10.25
2018-03-26T00:17:57.368Z,8.80
2018-03-26T00:20:24.890Z,9.10
2018-03-26T00:22:52.587Z,6.78
2018-03-26T00:25:20.091Z,6.62
2018-03-26T00:27:47.645Z,9.50
2018-03-26T00:30:15.184Z,7.22
2018-03-26T00:32:42.728Z,8.77
2018-03-26T00:35:10.560Z,9.63
2018-03-26T00:37:38.132Z,11.20
2018-03-26T00:40:05.676Z,10.80
2018-03-26T00:42:33.211Z,10.65
2018-03-26T00:45:00.728Z,11.32
2018-03-26T00:47:28.245Z,10.13
2018-03-26T00:49:55.771Z,11.07
2018-03-26T00:52:23.337Z,12.70
2018-03-26T00:54:50.847Z,10.52
2018-03-26T00:57:19.079Z,7.62
2018-03-26T00:59:46.599Z,11.43
2018-03-26T01:02:14.133Z,11.40
2018-03-26T01:04:42.269Z,9.18
2018-03-26T01:07:09.776Z,9.30
2018-03-26T01:09:37.330Z,9.57
2018-03-26T01:12:04.862Z,9.73
2018-03-26T01:14:32.397Z,11.15
2018-03-26T01:16:59.915Z,11.00
2018-03-26T01:19:27.454Z,12.40
2018-03-26T01:21:55.284Z,11.27
2018-03-26T01:24:22.806Z,10.23
2018-03-26T01:26:50.313Z,10.57
2018-03-26T01:29:17.842Z,10.93
2018-03-26T01:31:45.364Z,10.77
2018-03-26T01:34:12.907Z,11.45
2018-03-26T01:36:40.430Z,12.98
2018-03-26T01:39:08.059Z,12.77
2018-03-26T01:41:35.959Z,14.13
2018-03-26T01:44:03.533Z,15.07
2018-03-26T01:46:31.359Z,16.15
2018-03-26T01:48:58.878Z,13.05
2018-03-26T01:51:26.735Z,11.68
2018-03-26T01:53:54.257Z,12.13
2018-03-26T01:56:21.778Z,10.52
2018-03-26T01:58:49.299Z,11.25
2018-03-26T02:01:16.847Z,12.27
2018-03-26T02:03:44.379Z,11.12
2018-03-26T02:06:12.509Z,10.80
2018-03-26T02:08:40.052Z,11.38
2018-03-26T02:11:07.582Z,11.20
2018-03-26T02:13:35.098Z,12.18
2018-03-26T02:16:02.623Z,11.65
2018-03-26T02:18:30.146Z,12.65
2018-03-26T02:20:57.675Z,13.57
2018-03-26T02:23:25.226Z,15.40
2018-03-26T02:25:53.427Z,15.18
2018-03-26T02:28:21.246Z,11.82
2018-03-26T02:30:48.823Z,12.93
2018-03-26T02:33:16.373Z,11.70
2018-03-26T02:35:43.915Z,9.32
2018-03-26T02:38:11.440Z,10.27
2018-03-26T02:40:38.959Z,8.90
2018-03-26T02:43:06.516Z,8.85
2018-03-26T02:45:34.043Z,10.80
2018-03-26T02:48:01.561Z,8.02
2018-03-26T02:50:29.087Z,7.85
2018-03-26T02:52:56.823Z,7.35
2018-03-26T02:55:24.327Z,6.53
2018-03-26T02:57:51.850Z,6.18
2018-03-26T03:00:19.399Z,6.18
2018-03-26T03:02:46.920Z,5.70
2018-03-26T03:05:14.431Z,5.70
2018-03-26T03:07:41.944Z,5.07
2018-03-26T03:10:09.493Z,5.50
2018-03-26T03:12:37.031Z,3.95
2018-03-26T03:15:04.543Z,4.70
2018-03-26T03:17:32.051Z,3.95
2018-03-26T03:19:59.563Z,4.35
2018-03-26T03:22:27.070Z,4.97
2018-03-26T03:24:54.614Z,4.93
2018-03-26T03:27:22.141Z,5.03
2018-03-26T03:29:49.675Z,4.95
2018-03-26T03:32:17.191Z,5.25
2018-03-26T03:34:44.722Z,6.65
2018-03-26T03:37:12.230Z,5.95
2018-03-26T03:39:39.760Z,6.68
2018-03-26T03:42:07.290Z,6.55
2018-03-26T03:44:34.801Z,6.60
2018-03-26T03:47:02.317Z,6.60
2018-03-26T03:49:29.826Z,6.87
2018-03-26T03:51:57.339Z,7.68
2018-03-26T03:54:25.135Z,7.87
2018-03-26T03:56:52.645Z,8.52
2018-03-26T03:59:20.207Z,8.40
2018-03-26T04:01:47.729Z,7.18
2018-03-26T04:04:15.243Z,8.13
2018-03-26T04:06:42.786Z,8.52
2018-03-26T04:09:10.316Z,8.60
2018-03-26T04:11:37.826Z,8.35
2018-03-26T04:14:05.334Z,9.05
2018-03-26T04:16:32.845Z,9.65
2018-03-26T04:19:00.354Z,9.85
2018-03-26T04:21:27.899Z,11.00
2018-03-26T04:23:55.432Z,10.40
2018-03-26T04:26:23.751Z,9.90
2018-03-26T04:28:51.271Z,9.52
2018-03-26T04:31:18.779Z,8.85
2018-03-26T04:33:46.295Z,8.50
2018-03-26T04:36:13.834Z,7.60
2018-03-26T04:38:41.355Z,8.18
2018-03-26T04:41:08.872Z,9.52
2018-03-26T04:43:36.383Z,7.78
2018-03-26T04:46:03.920Z,7.65
2018-03-26T04:48:31.935Z,8.48
2018-03-26T04:50:59.795Z,7.35
2018-03-26T04:53:27.317Z,7.05
2018-03-26T04:55:54.850Z,8.65
2018-03-26T04:58:22.464Z,7.32
2018-03-26T05:00:49.991Z,8.43
2018-03-26T05:03:17.653Z,9.70
2018-03-26T05:05:45.163Z,8.65
2018-03-26T05:08:12.747Z,9.88
2018-03-26T05:10:40.288Z,9.02
2018-03-26T05:13:07.803Z,11.60
2018-03-26T05:15:35.340Z,11.57
2018-03-26T05:18:02.899Z,14.63
2018-03-26T05:20:30.432Z,13.02
2018-03-26T05:22:57.976Z,12.32
2018-03-26T05:25:25.500Z,13.50
2018-03-26T05:27:53.020Z,15.25
2018-03-26T05:30:20.574Z,12.57
2018-03-26T05:32:48.107Z,13.73
2018-03-26T05:35:15.880Z,15.90
2018-03-26T05:37:43.409Z,15.32
2018-03-26T05:40:10.972Z,15.55
2018-03-26T05:42:38.501Z,15.20
2018-03-26T05:45:06.044Z,17.05
2018-03-26T05:47:33.592Z,15.30
2018-03-26T05:50:01.110Z,16.40
2018-03-26T05:52:28.627Z,17.00
2018-03-26T05:54:56.159Z,17.60
2018-03-26T05:57:23.676Z,15.20
2018-03-26T05:59:51.194Z,14.32
2018-03-26T06:02:18.744Z,13.68
2018-03-26T06:04:46.276Z,14.68
2018-03-26T06:07:13.844Z,14.82
2018-03-26T06:09:41.368Z,14.38
2018-03-26T06:12:08.911Z,14.82
2018-03-26T06:14:36.440Z,14.27
2018-03-26T06:17:10.818Z,14.35
2018-03-26T06:19:38.339Z,14.20
2018-03-26T06:22:05.878Z,14.85
2018-03-26T06:24:33.423Z,13.45
2018-03-26T06:27:00.940Z,14.70
2018-03-26T06:29:28.491Z,14.00
2018-03-26T06:31:56.052Z,13.98
2018-03-26T06:34:23.595Z,14.35
2018-03-26T06:39:53.625Z,15.95
2018-03-26T06:42:21.170Z,16.42
2018-03-26T06:44:48.710Z,15.40
2018-03-26T06:47:16.286Z,15.35
2018-03-26T06:49:44.140Z,20.30
2018-03-26T06:52:11.666Z,17.17
2018-03-26T06:54:39.226Z,12.77
2018-03-26T06:57:06.746Z,16.58
2018-03-26T06:59:34.266Z,14.85
2018-03-26T07:02:01.868Z,16.12
2018-03-26T07:04:29.425Z,12.43
2018-03-26T07:06:56.941Z,12.77
2018-03-26T07:09:24.459Z,10.70
2018-03-26T07:11:51.980Z,11.88
2018-03-26T07:14:19.620Z,12.95
2018-03-26T07:16:47.135Z,9.25
2018-03-26T07:19:14.674Z,11.65
2018-03-26T07:21:42.224Z,13.15
2018-03-26T07:24:10.012Z,13.18
2018-03-26T07:26:37.538Z,15.93
2018-03-26T07:29:05.077Z,12.27
2018-03-26T07:31:32.863Z,10.38
2018-03-26T07:34:00.378Z,9.00
2018-03-26T07:36:28.001Z,13.32
2018-03-26T07:38:55.552Z,19.50
2018-03-26T07:41:23.071Z,14.50
2018-03-26T07:43:50.590Z,17.62
2018-03-26T07:46:18.124Z,11.38
2018-03-26T07:48:45.639Z,13.95
2018-03-26T07:51:13.539Z,11.52
2018-03-26T07:53:41.081Z,14.70
2018-03-26T07:56:08.611Z,12.48
2018-03-26T07:58:36.184Z,11.27
2018-03-26T08:01:03.767Z,11.85
2018-03-26T08:03:31.600Z,14.90
2018-03-26T08:05:59.124Z,12.98
2018-03-26T08:08:26.662Z,15.80
2018-03-26T08:10:54.250Z,20.02
2018-03-26T08:13:21.747Z,15.07
2018-03-26T08:15:49.277Z,13.85
2018-03-26T08:18:16.858Z,9.43
2018-03-26T08:20:44.394Z,8.63
2018-03-26T08:23:11.936Z,9.07
2018-03-26T08:25:39.788Z,12.35
2018-03-26T08:28:07.302Z,9.15
2018-03-26T08:30:34.848Z,11.88
2018-03-26T08:33:02.393Z,11.77
2018-03-26T08:35:30.236Z,11.77
2018-03-26T08:37:57.757Z,9.98
2018-03-26T08:40:25.304Z,15.60
2018-03-26T08:42:52.846Z,10.20
2018-03-26T08:45:20.440Z,14.93
2018-03-26T08:47:48.024Z,17.08
2018-03-26T08:50:15.614Z,15.88
2018-03-26T08:52:43.111Z,15.77
2018-03-26T08:55:10.657Z,15.32
2018-03-26T08:57:38.222Z,13.98
2018-03-26T09:00:12.827Z,14.15
2018-03-26T09:02:40.421Z,12.93
2018-03-26T09:05:07.939Z,12.02
2018-03-26T09:07:35.463Z,8.30
2018-03-26T09:10:03.003Z,9.93
2018-03-26T09:12:30.533Z,10.55
2018-03-26T09:14:58.052Z,10.53
2018-03-26T09:17:25.600Z,11.17
2018-03-26T09:19:53.137Z,6.90
2018-03-26T09:22:20.782Z,8.30
2018-03-26T09:24:48.310Z,9.82
2018-03-26T09:27:15.838Z,10.30
2018-03-26T09:29:43.342Z,7.43
2018-03-26T09:32:11.242Z,7.50
2018-03-26T09:34:38.762Z,12.43
2018-03-26T09:37:06.295Z,12.57
2018-03-26T09:39:33.818Z,10.90
2018-03-26T09:42:01.367Z,13.10
2018-03-26T09:44:28.901Z,9.93
2018-03-26T09:46:56.419Z,9.80
2018-03-26T09:49:23.938Z,10.67
2018-03-26T09:51:51.459Z,11.05
2018-03-26T09:54:19.001Z,7.12
2018-03-26T09:56:46.554Z,12.45
2018-03-26T09:59:14.096Z,8.63
2018-03-26T10:01:47.241Z,12.13
2018-03-26T10:04:14.803Z,14.10
2018-03-26T10:06:42.362Z,10.32
2018-03-26T10:09:09.895Z,10.77
2018-03-26T10:11:37.415Z,12.32
2018-03-26T10:14:05.063Z,11.57
2018-03-26T10:16:32.621Z,11.30
2018-03-26T10:19:00.164Z,14.52
2018-03-26T10:21:27.702Z,14.75
2018-03-26T10:23:55.263Z,15.85
2018-03-26T10:26:22.796Z,13.88
2018-03-26T10:28:50.350Z,14.50
2018-03-26T10:31:17.902Z,9.95
2018-03-26T10:33:45.452Z,13.82
2018-03-26T10:36:13.006Z,14.27
2018-03-26T10:38:40.552Z,14.75
2018-03-26T10:41:08.076Z,14.13
2018-03-26T10:43:35.668Z,9.88
2018-03-26T10:46:03.220Z,13.02
2018-03-26T10:48:30.787Z,17.60
2018-03-26T10:50:58.320Z,14.67
2018-03-26T10:53:25.859Z,16.83
2018-03-26T10:55:53.383Z,11.77
2018-03-26T10:58:20.952Z,10.97
2018-03-26T11:00:48.500Z,11.87
2018-03-26T11:03:16.041Z,12.53
2018-03-26T11:05:43.562Z,13.53
2018-03-26T11:08:11.094Z,13.03
2018-03-26T11:10:38.613Z,6.93
2018-03-26T11:13:06.137Z,10.90
2018-03-26T11:15:33.683Z,11.80
2018-03-26T11:18:01.235Z,14.23
2018-03-26T11:20:28.783Z,11.43
2018-03-26T11:22:56.705Z,11.73
2018-03-26T11:25:24.235Z,10.53
2018-03-26T11:27:51.788Z,15.10
2018-03-26T11:30:19.339Z,12.27
2018-03-26T11:32:46.866Z,10.83
2018-03-26T11:35:14.391Z,9.90
2018-03-26T11:37:41.921Z,10.17
2018-03-26T11:40:09.451Z,16.33
2018-03-26T11:42:36.977Z,12.93
2018-03-26T11:45:04.508Z,17.97
2018-03-26T11:47:32.056Z,15.57
2018-03-26T11:49:59.588Z,10.87
2018-03-26T11:52:27.107Z,14.10
2018-03-26T11:54:54.638Z,14.70
2018-03-26T11:57:22.168Z,14.17
2018-03-26T11:59:49.682Z,13.13
2018-03-26T12:02:17.203Z,11.77
2018-03-26T12:04:44.755Z,11.37
2018-03-26T12:07:12.292Z,9.97
2018-03-26T12:09:39.842Z,15.30
2018-03-26T12:12:07.359Z,12.43
2018-03-26T12:14:34.954Z,16.33
2018-03-26T12:17:02.444Z,14.37
2018-03-26T12:19:29.959Z,11.40
2018-03-26T12:21:57.476Z,10.17
2018-03-26T12:24:37.218Z,12.13
2018-03-26T12:27:05.693Z,11.10
2018-03-26T12:29:44.959Z,10.37
2018-03-26T12:32:12.508Z,12.03
2018-03-26T12:34:51.719Z,13.50
2018-03-26T12:37:19.239Z,14.17
2018-03-26T12:39:46.783Z,14.30
2018-03-26T12:42:14.313Z,14.17
2018-03-26T12:44:53.616Z,12.07
2018-03-26T12:47:21.159Z,12.97
2018-03-26T12:49:48.679Z,14.90
2018-03-26T12:52:28.148Z,14.57
2018-03-26T12:54:55.890Z,11.27
2018-03-26T12:57:35.302Z,14.30
2018-03-26T13:00:10.059Z,15.70
2018-03-26T13:02:37.572Z,11.57
2018-03-26T13:05:05.458Z,13.33
2018-03-26T13:07:32.968Z,15.23
2018-03-26T13:10:00.508Z,15.60
2018-03-26T13:12:28.023Z,13.63
2018-03-26T13:14:55.542Z,16.83
2018-03-26T13:17:23.123Z,16.20
2018-03-26T13:19:50.647Z,13.87
2018-03-26T13:22:18.207Z,15.40
2018-03-26T13:24:45.736Z,19.37
2018-03-26T13:27:13.268Z,21.13
2018-03-26T13:29:40.785Z,17.83
2018-03-26T13:32:08.310Z,20.37
2018-03-26T13:34:35.873Z,22.20
2018-03-26T13:37:03.386Z,21.40
2018-03-26T13:39:30.916Z,21.67
2018-03-26T13:41:58.484Z,17.90
2018-03-26T13:44:26.050Z,18.23
2018-03-26T13:46:53.668Z,20.17
2018-03-26T13:49:21.236Z,19.20
2018-03-26T13:51:48.811Z,18.53
2018-03-26T13:54:16.717Z,20.83
2018-03-26T13:56:44.271Z,14.17
2018-03-26T13:59:11.828Z,15.47
2018-03-26T14:01:39.411Z,19.83
2018-03-26T14:04:06.968Z,22.57
2018-03-26T14:06:34.633Z,18.20
2018-03-26T14:09:14.009Z,17.83
2018-03-26T14:11:53.530Z,18.77
2018-03-26T14:17:36.977Z,16.73
2018-03-26T14:20:04.557Z,12.13
2018-03-26T14:22:32.111Z,16.07
2018-03-26T14:24:59.632Z,14.37
2018-03-26T14:27:27.236Z,12.80
2018-03-26T14:29:55.032Z,9.83
2018-03-26T14:32:22.584Z,13.60
2018-03-26T14:35:02.106Z,17.23
2018-03-26T14:37:29.654Z,17.53
2018-03-26T14:39:57.195Z,19.83
2018-03-26T14:42:24.726Z,20.87
2018-03-26T14:44:52.245Z,19.77
2018-03-26T14:47:19.768Z,16.23
2018-03-26T14:49:47.356Z,22.17
2018-03-26T14:52:14.898Z,26.07
2018-03-26T14:54:42.424Z,18.97
2018-03-26T14:57:10.283Z,21.23
2018-03-26T14:59:37.815Z,20.43
2018-03-26T15:02:05.367Z,15.93
2018-03-26T15:04:32.902Z,19.23
2018-03-26T15:07:00.427Z,21.50
2018-03-26T15:09:27.994Z,19.10
2018-03-26T15:11:55.512Z,17.60
2018-03-26T15:14:23.036Z,19.53
2018-03-26T15:16:50.558Z,22.80
2018-03-26T15:19:18.086Z,21.23
2018-03-26T15:21:46.347Z,22.27
2018-03-26T15:24:13.876Z,18.47
2018-03-26T15:26:41.428Z,18.43
2018-03-26T15:29:08.960Z,21.00
2018-03-26T15:31:36.527Z,15.77
2018-03-26T15:34:04.338Z,20.07
2018-03-26T15:36:32.150Z,18.13
2018-03-26T15:38:59.716Z,20.43
2018-03-26T15:41:27.253Z,20.20
2018-03-26T15:43:54.800Z,18.43
2018-03-26T15:46:22.377Z,16.40
2018-03-26T15:48:49.908Z,15.47
2018-03-26T15:51:18.283Z,16.20
2018-03-26T15:53:45.832Z,17.97
2018-03-26T15:56:13.367Z,20.10
2018-03-26T15:58:40.888Z,22.13
2018-03-26T16:01:08.464Z,25.97
2018-03-26T16:03:35.983Z,21.07
2018-03-26T16:06:03.552Z,28.03
2018-03-26T16:08:31.089Z,27.40
2018-03-26T16:10:58.709Z,28.37
2018-03-26T16:13:27.154Z,30.20
2018-03-26T16:15:54.668Z,30.87
2018-03-26T16:18:22.204Z,25.67
2018-03-26T16:20:49.743Z,24.17
2018-03-26T16:23:17.680Z,27.20
2018-03-26T16:25:45.245Z,24.07
2018-03-26T16:28:12.773Z,24.60
2018-03-26T16:30:40.367Z,26.80
2018-03-26T16:33:07.892Z,21.47
2018-03-26T16:35:35.439Z,25.00
2018-03-26T16:38:03.003Z,21.35
2018-03-26T16:40:30.540Z,21.30
2018-03-26T16:43:06.360Z,24.37
2018-03-26T16:45:33.927Z,20.83
2018-03-26T16:48:01.451Z,25.33
2018-03-26T16:50:29.025Z,24.17
2018-03-26T16:52:56.551Z,25.77
2018-03-26T16:55:24.150Z,26.30
2018-03-26T16:57:51.710Z,23.52
2018-03-26T17:00:19.331Z,24.40
2018-03-26T17:02:46.899Z,28.27
2018-03-26T17:05:14.493Z,28.12
2018-03-26T17:07:42.041Z,35.03
2018-03-26T17:10:10.443Z,40.17
2018-03-26T17:12:37.995Z,39.53
2018-03-26T17:15:05.555Z,48.60
2018-03-26T17:17:33.158Z,55.60
2018-03-26T17:20:00.706Z,51.78
2018-03-26T17:22:28.271Z,49.90
2018-03-26T17:24:55.837Z,51.33
2018-03-26T17:27:23.406Z,45.65
2018-03-26T17:29:50.991Z,47.78
2018-03-26T17:32:18.611Z,45.10
2018-03-26T17:34:46.607Z,33.08
2018-03-26T17:37:14.203Z,37.83
2018-03-26T17:39:41.752Z,41.15
2018-03-26T17:42:09.342Z,35.38
2018-03-26T17:44:36.939Z,34.67
2018-03-26T17:47:04.499Z,39.65
2018-03-26T17:49:32.057Z,33.70
2018-03-26T17:51:59.627Z,37.10
2018-03-26T17:54:27.179Z,43.08
2018-03-26T17:56:54.738Z,45.60
2018-03-26T17:59:22.291Z,47.08
2018-03-26T18:01:49.888Z,45.55
2018-03-26T18:04:17.454Z,49.92
2018-03-26T18:06:44.997Z,48.17
2018-03-26T18:09:12.576Z,50.90
2018-03-26T18:11:40.147Z,38.88
2018-03-26T18:14:07.732Z,37.30
2018-03-26T18:16:35.292Z,39.40
2018-03-26T18:19:02.859Z,38.47
2018-03-26T18:21:30.410Z,33.13
2018-03-26T18:23:57.974Z,35.28
2018-03-26T18:26:25.542Z,42.97
2018-03-26T18:28:53.119Z,48.33
2018-03-26T18:31:20.869Z,42.42
2018-03-26T18:33:48.413Z,50.95
2018-03-26T18:36:15.959Z,45.05
2018-03-26T18:38:43.536Z,51.30
2018-03-26T18:41:11.094Z,57.53
2018-03-26T18:43:38.664Z,61.30
2018-03-26T18:46:06.224Z,56.40
2018-03-26T18:48:33.845Z,56.10
2018-03-26T18:51:01.441Z,67.87
2018-03-26T18:53:29.000Z,65.43
2018-03-26T18:55:57.354Z,65.75
2018-03-26T18:58:24.931Z,45.67
2018-03-26T19:00:52.480Z,45.38
2018-03-26T19:03:20.378Z,44.90
2018-03-26T19:05:47.979Z,39.40
2018-03-26T19:08:15.847Z,38.42
2018-03-26T19:10:43.796Z,42.85
2018-03-26T19:13:11.353Z,40.65
2018-03-26T19:15:38.910Z,35.40
2018-03-26T19:18:06.481Z,33.42
2018-03-26T19:20:34.032Z,30.88
2018-03-26T19:23:01.580Z,30.23
2018-03-26T19:25:29.874Z,60.88
2018-03-26T19:27:57.442Z,26.95
2018-03-26T19:30:25.026Z,27.00
2018-03-26T19:32:52.577Z,33.60
2018-03-26T19:35:20.122Z,24.55
2018-03-26T19:37:47.679Z,26.55
2018-03-26T19:40:15.250Z,30.62
2018-03-26T19:42:43.678Z,34.17
2018-03-26T19:45:11.253Z,33.97
2018-03-26T19:47:38.868Z,33.75
2018-03-26T19:50:06.458Z,32.17
2018-03-26T19:52:34.016Z,31.37
2018-03-26T19:55:01.903Z,31.87
2018-03-26T19:57:29.455Z,32.70
2018-03-26T19:59:57.029Z,45.42
2018-03-26T20:02:24.557Z,34.63
2018-03-26T20:04:52.143Z,36.47
2018-03-26T20:07:20.314Z,39.23
2018-03-26T20:09:47.849Z,42.67
2018-03-26T20:12:15.410Z,49.37
2018-03-26T20:14:42.947Z,51.20
2018-03-26T20:17:11.423Z,63.93
2018-03-26T20:19:38.970Z,66.27
2018-03-26T20:22:07.415Z,68.77
2018-03-26T20:24:34.957Z,64.43
2018-03-26T20:27:02.521Z,59.77
2018-03-26T20:29:30.098Z,56.87
2018-03-26T20:31:57.646Z,60.70
2018-03-26T20:34:25.237Z,62.73
2018-03-26T20:36:52.762Z,61.93
2018-03-26T20:39:20.302Z,60.53
2018-03-26T20:41:48.208Z,60.73
2018-03-26T20:44:15.750Z,60.43
2018-03-26T20:46:43.289Z,64.73
2018-03-26T20:49:10.827Z,65.77
2018-03-26T20:51:38.395Z,65.20
2018-03-26T20:54:05.945Z,62.20
2018-03-26T20:56:33.477Z,59.40
2018-03-26T20:59:01.050Z,65.03
2018-03-26T21:01:28.609Z,61.13
2018-03-26T21:03:56.192Z,65.60
2018-03-26T21:06:23.723Z,64.13
2018-03-26T21:08:51.262Z,57.93
2018-03-26T21:11:18.893Z,48.33
2018-03-26T21:13:46.528Z,54.93
2018-03-26T21:16:14.074Z,46.93
2018-03-26T21:18:41.660Z,43.47
2018-03-26T21:21:09.174Z,40.90
2018-03-26T21:23:36.715Z,42.27
2018-03-26T21:26:04.280Z,40.90
2018-03-26T21:28:31.806Z,42.50
2018-03-26T21:30:59.359Z,38.50
2018-03-26T21:33:26.894Z,42.97
2018-03-26T21:35:54.418Z,43.83
2018-03-26T21:38:21.948Z,43.73
2018-03-26T21:40:49.817Z,42.13
2018-03-26T21:43:17.361Z,41.57
2018-03-26T21:45:44.885Z,36.53
2018-03-26T21:48:12.445Z,44.57
2018-03-26T21:50:40.016Z,50.90
2018-03-26T21:53:07.623Z,51.97
2018-03-26T21:55:35.332Z,53.27
2018-03-26T21:58:03.090Z,51.90
2018-03-26T22:00:30.616Z,54.57
2018-03-26T22:02:58.669Z,57.13
2018-03-26T22:05:26.239Z,56.80
2018-03-26T22:07:53.785Z,50.37
2018-03-26T22:10:21.315Z,51.40
2018-03-26T22:12:48.832Z,50.93
2018-03-26T22:15:16.355Z,48.20
2018-03-26T22:17:43.926Z,54.27
2018-03-26T22:20:11.456Z,50.80
2018-03-26T22:22:38.996Z,45.50
2018-03-26T22:25:06.524Z,46.17
2018-03-26T22:27:34.322Z,45.13
2018-03-26T22:30:01.872Z,51.00
2018-03-26T22:32:29.410Z,53.77
2018-03-26T22:34:57.212Z,51.90
2018-03-26T22:37:24.768Z,47.77
2018-03-26T22:39:52.300Z,48.93
2018-03-26T22:42:19.843Z,56.07
2018-03-26T22:44:47.718Z,48.10
2018-03-26T22:47:15.231Z,52.33
2018-03-26T22:49:42.778Z,47.63
2018-03-26T22:52:10.339Z,44.50
2018-03-26T22:54:37.876Z,50.57
2018-03-26T22:57:05.680Z,51.97
2018-03-26T22:59:33.209Z,50.77
2018-03-26T23:02:00.749Z,50.17
2018-03-26T23:04:28.286Z,46.77
2018-03-26T23:06:55.802Z,46.53
2018-03-26T23:09:23.351Z,44.27
2018-03-26T23:11:50.878Z,50.20
2018-03-26T23:14:18.441Z,42.47
2018-03-26T23:16:45.972Z,41.87
2018-03-26T23:19:13.491Z,41.43
2018-03-26T23:21:41.050Z,39.43
2018-03-26T23:24:08.812Z,45.50
2018-03-26T23:26:36.370Z,45.40
2018-03-26T23:29:03.935Z,39.80
2018-03-26T23:31:31.482Z,43.97
2018-03-26T23:33:59.242Z,46.47
2018-03-26T23:36:26.784Z,46.73
2018-03-26T23:38:55.044Z,49.03
2018-03-26T23:41:22.563Z,45.13
2018-03-26T23:43:50.104Z,45.07
2018-03-26T23:46:17.685Z,49.70
2018-03-26T23:48:45.497Z,42.90
2018-03-26T23:51:13.016Z,46.80
2018-03-26T23:53:40.548Z,44.77
2018-03-26T23:56:08.095Z,49.90
2018-03-26T23:58:35.651Z,44.67
